createdAt,value
2023-05-10T00:00:05.819Z,97.37
2023-05-10T00:02:49.864Z,97.59
2023-05-10T00:05:36.776Z,97.97
2023-05-10T00:08:16.863Z,98.18
2023-05-10T00:11:03.738Z,97.89
2023-05-10T00:13:50.723Z,98.37
2023-05-10T00:16:31.334Z,97.45
2023-05-10T00:19:17.718Z,97.82
2023-05-10T00:22:04.727Z,98.36
2023-05-10T00:24:51.688Z,98.35
2023-05-10T00:27:32.062Z,98.29
2023-05-10T00:30:19.687Z,98.15
2023-05-10T00:33:00.098Z,98.97
2023-05-10T00:35:46.657Z,98.59
2023-05-10T00:38:27.148Z,98.82
2023-05-10T00:41:13.710Z,99.48
2023-05-10T00:44:00.704Z,99.18
2023-05-10T00:46:40.731Z,99.53
2023-05-10T00:49:28.690Z,99.53
2023-05-10T00:52:08.754Z,99.51
2023-05-10T00:54:55.653Z,99.16
2023-05-10T00:57:35.744Z,99.59
2023-05-10T01:00:25.696Z,99.69
2023-05-10T01:03:05.765Z,98.95
2023-05-10T01:05:52.638Z,99.22
2023-05-10T01:08:41.638Z,98.88
2023-05-10T01:11:22.314Z,98.39
2023-05-10T01:14:11.632Z,98.44
2023-05-10T01:16:54.272Z,98.47
2023-05-10T01:19:42.623Z,97.82
2023-05-10T01:22:51.225Z,98.09
2023-05-10T01:25:57.609Z,98.33
2023-05-10T01:29:05.475Z,97.63
2023-05-10T01:32:11.607Z,98.97
2023-05-10T01:34:56.782Z,99.03
2023-05-10T01:37:50.609Z,99.64
2023-05-10T01:40:50.593Z,99.31
2023-05-10T01:43:42.630Z,99.74
2023-05-10T01:46:27.705Z,100.00
2023-05-10T01:49:27.591Z,100.00
2023-05-10T01:52:22.626Z,100.00
2023-05-10T01:55:13.571Z,100.00
2023-05-10T01:58:05.616Z,100.00
2023-05-10T02:00:48.536Z,100.00
2023-05-10T02:03:37.569Z,100.00
2023-05-10T02:06:21.530Z,100.00
2023-05-10T02:09:09.596Z,100.00
2023-05-10T02:11:51.339Z,100.00
2023-05-10T02:14:41.548Z,100.00
2023-05-10T02:17:29.513Z,100.00
2023-05-10T02:20:11.730Z,100.00
2023-05-10T02:23:01.528Z,100.00
2023-05-10T02:25:44.785Z,100.00
2023-05-10T02:28:33.587Z,100.00
2023-05-10T02:31:14.632Z,100.00
2023-05-10T02:34:02.485Z,100.00
2023-05-10T02:36:43.596Z,100.00
2023-05-10T02:39:32.517Z,100.00
2023-05-10T02:42:31.547Z,100.00
2023-05-10T02:45:15.686Z,100.00
2023-05-10T02:48:03.631Z,100.00
2023-05-10T02:50:52.399Z,100.00
2023-05-10T02:53:46.521Z,100.00
2023-05-10T02:56:35.518Z,100.00
2023-05-10T02:59:22.471Z,100.00
2023-05-10T03:02:09.669Z,100.00
2023-05-10T03:04:49.583Z,100.00
2023-05-10T03:07:36.544Z,100.00
2023-05-10T03:10:17.746Z,100.00
2023-05-10T03:13:16.532Z,100.00
2023-05-10T03:16:13.521Z,100.00
2023-05-10T03:19:04.516Z,98.99
2023-05-10T03:21:56.466Z,98.51
2023-05-10T03:24:48.422Z,98.31
2023-05-10T03:27:38.439Z,96.71
2023-05-10T03:30:20.622Z,97.68
2023-05-10T03:33:07.481Z,96.96
2023-05-10T03:35:57.422Z,96.70
2023-05-10T03:38:37.573Z,96.43
2023-05-10T03:41:24.464Z,96.58
2023-05-10T03:44:04.495Z,95.46
2023-05-10T03:46:51.569Z,94.55
2023-05-10T03:49:31.569Z,94.27
2023-05-10T03:52:18.404Z,93.08
2023-05-10T03:54:58.536Z,91.35
2023-05-10T03:57:45.399Z,88.99
2023-05-10T04:00:25.477Z,86.41
2023-05-10T04:03:13.560Z,83.58
2023-05-10T04:05:53.538Z,81.12
2023-05-10T04:08:40.345Z,80.03
2023-05-10T04:11:22.995Z,79.03
2023-05-10T04:14:09.375Z,78.02
2023-05-10T04:16:49.544Z,75.59
2023-05-10T04:19:37.364Z,71.33
2023-05-10T04:22:17.525Z,70.14
2023-05-10T04:25:04.390Z,69.40
2023-05-10T04:27:44.560Z,69.70
2023-05-10T04:30:31.496Z,68.28
2023-05-10T04:33:11.419Z,67.22
2023-05-10T04:35:58.348Z,67.15
2023-05-10T04:38:45.345Z,66.12
2023-05-10T04:41:39.391Z,66.05
2023-05-10T04:44:19.721Z,64.15
2023-05-10T04:47:06.351Z,62.79
2023-05-10T04:49:53.351Z,62.41
2023-05-10T04:52:33.463Z,64.78
2023-05-10T04:55:21.358Z,64.68
2023-05-10T04:58:01.687Z,63.21
2023-05-10T05:00:48.310Z,62.23
2023-05-10T05:03:28.592Z,61.12
2023-05-10T05:06:15.358Z,60.10
2023-05-10T05:08:55.448Z,60.77
2023-05-10T05:11:42.350Z,59.50
2023-05-10T05:14:22.389Z,57.54
2023-05-10T05:17:09.348Z,58.09
2023-05-10T05:19:49.461Z,56.75
2023-05-10T05:22:36.284Z,58.13
2023-05-10T05:25:23.346Z,57.24
2023-05-10T05:28:03.722Z,59.13
2023-05-10T05:30:50.328Z,59.15
2023-05-10T05:33:30.782Z,58.36
2023-05-10T05:36:18.302Z,55.83
2023-05-10T05:38:58.798Z,58.21
2023-05-10T05:41:45.246Z,56.35
2023-05-10T05:44:25.760Z,55.09
2023-05-10T05:47:12.285Z,54.32
2023-05-10T05:49:52.664Z,54.98
2023-05-10T05:52:39.308Z,55.47
2023-05-10T05:55:19.788Z,53.97
2023-05-10T05:58:06.290Z,56.64
2023-05-10T06:00:46.607Z,54.11
2023-05-10T06:03:33.379Z,53.93
2023-05-10T06:06:13.718Z,54.81
2023-05-10T06:09:00.254Z,53.53
2023-05-10T06:11:47.729Z,53.63
2023-05-10T06:14:30.205Z,53.04
2023-05-10T06:17:10.636Z,53.87
2023-05-10T06:19:57.310Z,55.43
2023-05-10T06:22:37.645Z,51.61
2023-05-10T06:25:25.248Z,49.34
2023-05-10T06:28:05.624Z,47.67
2023-05-10T06:30:52.215Z,45.92
2023-05-10T06:33:32.667Z,43.89
2023-05-10T06:36:19.215Z,44.94
2023-05-10T06:38:59.676Z,49.09
2023-05-10T06:41:46.186Z,46.47
2023-05-10T06:44:26.611Z,45.58
2023-05-10T06:47:13.256Z,46.67
2023-05-10T06:49:53.629Z,46.59
2023-05-10T06:52:40.193Z,44.80
2023-05-10T06:55:20.640Z,44.92
2023-05-10T06:58:07.209Z,47.52
2023-05-10T07:00:48.462Z,43.22
2023-05-10T07:03:35.319Z,42.43
2023-05-10T07:06:29.347Z,46.78
2023-05-10T07:09:19.223Z,42.92
2023-05-10T07:12:07.266Z,45.61
2023-05-10T07:14:55.212Z,43.79
2023-05-10T07:17:35.926Z,43.23
2023-05-10T07:20:23.145Z,46.75
2023-05-10T07:23:10.226Z,48.16
2023-05-10T07:40:34.694Z,61.59
2023-05-10T07:43:15.103Z,61.72
2023-05-10T07:46:01.747Z,61.09
2023-05-10T07:48:42.411Z,57.46
2023-05-10T07:51:29.871Z,54.11
2023-05-10T07:54:10.185Z,56.82
2023-05-10T07:56:56.705Z,58.40
2023-05-10T07:59:37.490Z,51.99
2023-05-10T08:02:24.789Z,42.84
2023-05-10T08:05:06.498Z,36.99
2023-05-10T08:07:53.616Z,38.32
2023-05-10T08:10:40.687Z,41.05
2023-05-10T08:13:27.707Z,43.47
2023-05-10T08:16:08.408Z,47.87
2023-05-10T08:18:55.705Z,44.28
2023-05-10T08:21:36.854Z,49.49
2023-05-10T08:24:24.683Z,49.71
2023-05-10T08:27:14.674Z,48.61
2023-05-10T08:29:54.786Z,45.37
2023-05-10T08:32:42.652Z,46.43
2023-05-10T08:35:30.658Z,43.86
2023-05-10T08:38:17.612Z,48.70
2023-05-10T08:41:01.905Z,48.57
2023-05-10T08:43:53.606Z,46.60
2023-05-10T08:46:35.915Z,48.36
2023-05-10T08:49:27.636Z,48.54
2023-05-10T08:52:11.763Z,51.91
2023-05-10T08:54:58.653Z,49.66
2023-05-10T08:57:38.777Z,55.78
2023-05-10T09:00:26.617Z,54.22
2023-05-10T09:03:08.216Z,52.79
2023-05-10T09:05:56.584Z,50.97
2023-05-10T09:08:36.746Z,52.95
2023-05-10T09:11:23.568Z,52.66
2023-05-10T09:14:10.645Z,47.13
2023-05-10T09:16:50.990Z,44.47
2023-05-10T09:19:37.637Z,44.00
2023-05-10T09:22:25.615Z,43.09
2023-05-10T09:25:26.584Z,45.50
2023-05-10T09:28:11.001Z,43.35
2023-05-10T09:30:57.564Z,42.65
2023-05-10T09:33:45.942Z,40.43
2023-05-10T09:36:32.612Z,37.51
2023-05-10T09:39:19.569Z,39.81
2023-05-10T09:42:00.149Z,36.53
2023-05-10T09:44:48.535Z,37.18
2023-05-10T09:47:35.618Z,38.05
2023-05-10T09:50:16.023Z,34.85
2023-05-10T09:53:07.745Z,34.97
2023-05-10T09:55:47.971Z,37.39
2023-05-10T09:58:34.553Z,37.73
2023-05-10T10:01:15.141Z,37.75
2023-05-10T10:04:01.610Z,37.19
2023-05-10T10:06:42.387Z,35.59
2023-05-10T10:09:29.551Z,37.56
2023-05-10T10:12:09.936Z,35.98
2023-05-10T10:14:57.515Z,38.61
2023-05-10T10:17:39.733Z,38.35
2023-05-10T10:20:27.498Z,39.69
2023-05-10T10:23:09.331Z,42.14
2023-05-10T10:25:57.470Z,41.35
2023-05-10T10:28:48.421Z,40.90
2023-05-10T10:31:54.596Z,46.57
2023-05-10T10:34:35.364Z,44.62
2023-05-10T10:37:22.484Z,42.51
2023-05-10T10:40:26.800Z,42.69
2023-05-10T10:43:39.474Z,42.99
2023-05-10T10:46:28.508Z,41.59
2023-05-10T10:49:18.295Z,41.66
2023-05-10T10:52:28.482Z,42.11
2023-05-10T10:55:32.493Z,44.87
2023-05-10T10:58:30.750Z,50.09
2023-05-10T11:01:25.454Z,51.90
2023-05-10T11:04:05.823Z,53.60
2023-05-10T11:06:52.445Z,51.88
2023-05-10T11:09:41.195Z,52.30
2023-05-10T11:12:28.529Z,51.89
2023-05-10T11:15:10.714Z,49.41
2023-05-10T11:17:59.484Z,49.23
2023-05-10T11:20:47.473Z,48.57
2023-05-10T11:23:27.491Z,50.72
2023-05-10T11:26:18.420Z,47.19
2023-05-10T11:29:02.854Z,50.68
2023-05-10T11:31:51.480Z,52.61
2023-05-10T11:34:36.573Z,57.86
2023-05-10T11:37:23.575Z,57.55
2023-05-10T11:40:10.830Z,60.35
2023-05-10T11:42:50.387Z,61.21
2023-05-10T11:45:33.736Z,59.91
2023-05-10T11:48:20.415Z,61.32
2023-05-10T11:51:03.100Z,60.21
2023-05-10T11:53:49.385Z,62.38
2023-05-10T11:56:36.392Z,61.53
2023-05-10T11:59:16.496Z,62.70
2023-05-10T12:02:03.371Z,61.37
2023-05-10T12:04:43.578Z,60.50
2023-05-10T12:07:30.420Z,61.96
2023-05-10T12:10:27.445Z,62.54
2023-05-10T12:13:20.351Z,61.73
2023-05-10T12:16:00.891Z,63.14
2023-05-10T12:18:49.383Z,60.86
2023-05-10T12:21:36.456Z,61.52
2023-05-10T12:24:26.399Z,61.13
2023-05-10T12:27:15.342Z,62.88
2023-05-10T12:29:55.805Z,64.52
2023-05-10T12:32:56.320Z,64.92
2023-05-10T12:35:57.391Z,64.14
2023-05-10T12:38:50.368Z,63.82
2023-05-10T12:41:30.820Z,63.38
2023-05-10T12:44:17.376Z,62.80
2023-05-10T12:46:57.951Z,63.03
2023-05-10T12:49:44.361Z,63.51
2023-05-10T12:52:27.123Z,62.64
2023-05-10T12:55:14.376Z,63.00
2023-05-10T12:57:54.687Z,62.50
2023-05-10T13:00:41.309Z,63.04
2023-05-10T13:03:21.758Z,62.46
2023-05-10T13:06:08.323Z,62.41
2023-05-10T13:08:48.776Z,61.81
2023-05-10T13:11:35.351Z,62.24
2023-05-10T13:14:22.271Z,63.99
2023-05-10T13:17:02.517Z,63.11
2023-05-10T13:19:49.275Z,63.89
2023-05-10T13:22:39.611Z,64.02
2023-05-10T13:25:27.380Z,64.61
2023-05-10T13:28:07.398Z,64.57
2023-05-10T13:30:54.269Z,64.10
2023-05-10T13:33:41.295Z,64.75
2023-05-10T13:36:28.305Z,66.00
2023-05-10T13:39:08.329Z,64.85
2023-05-10T13:41:56.270Z,64.48
2023-05-10T13:44:37.191Z,65.29
2023-05-10T13:47:24.282Z,65.57
2023-05-10T13:50:04.777Z,66.58
2023-05-10T13:52:51.308Z,66.57
2023-05-10T13:56:35.240Z,65.98
2023-05-10T13:59:15.784Z,66.70
2023-05-10T14:02:02.301Z,64.72
2023-05-10T14:04:49.284Z,64.44
2023-05-10T14:07:29.390Z,64.61
2023-05-10T14:10:16.235Z,64.62
2023-05-10T14:12:58.502Z,64.88
2023-05-10T14:15:45.275Z,65.54
2023-05-10T14:18:25.338Z,65.50
2023-05-10T14:21:12.230Z,65.73
2023-05-10T14:23:52.346Z,64.89
2023-05-10T14:26:39.213Z,64.19
2023-05-10T14:29:19.364Z,65.18
2023-05-10T14:32:06.246Z,64.70
2023-05-10T14:34:46.344Z,64.50
2023-05-10T14:37:33.221Z,63.34
2023-05-10T14:40:20.298Z,63.98
2023-05-10T14:43:00.170Z,63.76
2023-05-10T14:45:47.268Z,64.15
2023-05-10T14:48:34.220Z,65.52
2023-05-10T14:51:14.707Z,66.89
2023-05-10T14:54:01.196Z,67.06
2023-05-10T14:56:42.601Z,67.94
2023-05-10T14:59:29.212Z,68.27
2023-05-10T15:02:10.545Z,68.55
2023-05-10T15:04:58.132Z,69.33
2023-05-10T15:07:38.506Z,69.85
2023-05-10T15:10:25.166Z,69.27
2023-05-10T15:13:12.186Z,68.11
2023-05-10T15:15:52.236Z,68.40
2023-05-10T15:18:39.263Z,68.16
2023-05-10T15:21:27.128Z,68.31
2023-05-10T15:24:07.587Z,69.34
2023-05-10T15:26:54.167Z,70.09
2023-05-10T15:29:35.291Z,69.32
2023-05-10T15:32:22.181Z,70.11
2023-05-10T15:35:03.571Z,71.22
2023-05-10T15:37:50.112Z,71.38
2023-05-10T15:40:30.590Z,70.77
2023-05-10T15:43:17.111Z,70.35
2023-05-10T15:45:57.586Z,70.69
2023-05-10T15:48:44.108Z,70.79
2023-05-10T15:51:24.462Z,69.98
2023-05-10T15:54:11.091Z,70.06
2023-05-10T15:56:51.475Z,70.30
2023-05-10T15:59:38.094Z,71.37
2023-05-10T16:02:19.419Z,70.73
2023-05-10T16:05:06.112Z,72.39
2023-05-10T16:07:46.935Z,72.71
2023-05-10T16:10:34.090Z,73.55
2023-05-10T16:13:22.080Z,73.97
2023-05-10T16:16:02.144Z,74.42
2023-05-10T16:18:49.261Z,74.16
2023-05-10T16:21:29.153Z,74.15
2023-05-10T16:24:16.110Z,73.68
2023-05-10T16:27:03.089Z,74.19
2023-05-10T16:29:50.135Z,74.43
2023-05-10T16:32:37.135Z,74.81
2023-05-10T16:35:17.552Z,74.87
2023-05-10T16:38:04.060Z,74.80
2023-05-10T16:40:51.177Z,75.23
2023-05-10T16:43:31.065Z,74.66
2023-05-10T16:46:19.064Z,74.77
2023-05-10T16:49:00.262Z,75.30
2023-05-10T16:51:48.210Z,76.10
2023-05-10T16:54:35.303Z,77.35
2023-05-10T16:57:15.464Z,76.74
2023-05-10T17:00:03.000Z,77.41
2023-05-10T17:02:43.520Z,77.00
2023-05-10T17:05:30.036Z,77.57
2023-05-10T17:08:10.666Z,77.20
2023-05-10T17:10:57.024Z,76.82
2023-05-10T17:13:38.894Z,77.16
2023-05-10T17:16:27.068Z,77.00
2023-05-10T17:19:08.522Z,77.38
2023-05-10T17:21:55.043Z,76.89
2023-05-10T17:24:35.418Z,76.91
2023-05-10T17:27:21.961Z,77.47
2023-05-10T17:30:02.431Z,76.97
2023-05-10T17:32:49.019Z,78.29
2023-05-10T17:35:31.506Z,78.88
2023-05-10T17:38:17.948Z,78.96
2023-05-10T17:41:11.966Z,79.02
2023-05-10T17:43:58.921Z,78.27
2023-05-10T17:46:39.069Z,79.48
2023-05-10T17:49:25.956Z,79.67
2023-05-10T17:52:06.080Z,79.28
2023-05-10T17:54:52.935Z,79.34
2023-05-10T17:57:33.435Z,79.39
2023-05-10T18:00:20.899Z,79.19
2023-05-10T18:03:01.437Z,78.56
2023-05-10T18:05:47.916Z,78.33
2023-05-10T18:08:34.902Z,77.60
2023-05-10T18:11:15.358Z,77.58
2023-05-10T18:14:01.973Z,78.31
2023-05-10T18:16:43.265Z,78.85
2023-05-10T18:19:31.890Z,78.65
2023-05-10T18:22:12.698Z,78.61
2023-05-10T18:24:59.884Z,77.75
2023-05-10T18:27:46.939Z,77.33
2023-05-10T18:30:27.004Z,78.07
2023-05-10T18:33:15.007Z,79.15
2023-05-10T18:36:01.881Z,79.28
2023-05-10T18:38:42.338Z,79.61
2023-05-10T18:41:28.915Z,80.67
2023-05-10T18:44:15.834Z,81.10
2023-05-10T18:47:02.869Z,79.96
2023-05-10T18:49:51.901Z,82.34
2023-05-10T18:52:38.837Z,80.77
2023-05-10T18:55:19.489Z,80.53
2023-05-10T18:58:06.879Z,81.75
2023-05-10T19:00:47.216Z,81.95
2023-05-10T19:03:34.864Z,77.50
2023-05-10T19:06:21.873Z,87.19
2023-05-10T19:09:08.815Z,82.11
2023-05-10T19:11:56.096Z,80.68
2023-05-10T19:14:35.840Z,87.70
2023-05-10T19:17:25.192Z,83.46
2023-05-10T19:20:05.613Z,85.24
2023-05-10T19:23:08.140Z,89.33
2023-05-10T19:25:50.011Z,83.64
2023-05-10T19:42:25.298Z,85.77
2023-05-10T19:45:06.222Z,85.23
2023-05-10T19:47:53.417Z,85.08
2023-05-10T19:50:33.916Z,84.98
2023-05-10T19:53:20.350Z,84.16
2023-05-10T19:56:13.281Z,84.72
2023-05-10T19:58:53.367Z,84.02
2023-05-10T20:01:40.418Z,83.90
2023-05-10T20:04:21.284Z,83.94
2023-05-10T20:07:08.273Z,84.17
2023-05-10T20:09:49.642Z,84.05
2023-05-10T20:12:36.304Z,84.37
2023-05-10T20:15:16.646Z,83.86
2023-05-10T20:18:03.363Z,83.83
2023-05-10T20:20:50.301Z,83.76
2023-05-10T20:23:37.275Z,84.40
2023-05-10T20:26:17.400Z,84.58
2023-05-10T20:29:04.245Z,84.29
2023-05-10T20:31:44.393Z,84.73
2023-05-10T20:34:31.234Z,85.26
2023-05-10T20:37:18.302Z,85.53
2023-05-10T20:40:12.265Z,85.71
2023-05-10T20:42:59.360Z,85.50
2023-05-10T20:45:39.274Z,86.15
2023-05-10T20:48:26.430Z,86.14
2023-05-10T20:51:08.293Z,86.23
2023-05-10T20:53:55.218Z,85.85
2023-05-10T20:56:42.217Z,85.84
2023-05-10T20:59:22.825Z,86.29
2023-05-10T21:02:10.187Z,86.18
2023-05-10T21:04:50.562Z,86.38
2023-05-10T21:07:39.202Z,86.46
2023-05-10T21:10:20.827Z,86.19
2023-05-10T21:13:08.157Z,86.74
2023-05-10T21:15:55.205Z,86.20
2023-05-10T21:18:36.069Z,86.41
2023-05-10T21:21:23.166Z,86.23
2023-05-10T21:24:10.228Z,86.23
2023-05-10T21:26:57.292Z,86.59
2023-05-10T21:29:37.237Z,86.36
2023-05-10T21:32:17.532Z,86.43
2023-05-10T21:35:04.144Z,86.42
2023-05-10T21:37:44.531Z,86.39
2023-05-10T21:40:31.108Z,86.64
2023-05-10T21:43:18.165Z,86.54
2023-05-10T21:46:05.294Z,86.75
2023-05-10T21:48:45.550Z,86.94
2023-05-10T21:51:32.160Z,87.16
2023-05-10T21:54:12.529Z,87.15
2023-05-10T21:56:59.198Z,87.49
2023-05-10T21:59:39.817Z,87.17
2023-05-10T22:02:26.207Z,86.85
2023-05-10T22:05:13.095Z,86.90
2023-05-10T22:08:00.136Z,87.50
2023-05-10T22:10:47.113Z,87.04
2023-05-10T22:13:27.206Z,86.54
2023-05-10T22:16:14.234Z,87.33
2023-05-10T22:19:01.134Z,87.12
2023-05-10T22:21:48.072Z,87.33
2023-05-10T22:24:28.204Z,87.49
2023-05-10T22:27:15.068Z,88.01
2023-05-10T22:29:55.160Z,88.67
2023-05-10T22:32:42.092Z,88.38
2023-05-10T22:35:29.083Z,88.33
2023-05-10T22:38:09.481Z,88.56
2023-05-10T22:40:56.061Z,89.01
2023-05-10T22:43:43.124Z,88.50
2023-05-10T22:46:23.041Z,88.62
2023-05-10T22:49:03.488Z,88.99
2023-05-10T22:51:50.015Z,89.13
2023-05-10T22:54:30.692Z,88.85
2023-05-10T22:57:17.064Z,89.01
2023-05-10T22:59:57.461Z,88.94
2023-05-10T23:02:45.028Z,89.03
2023-05-10T23:05:25.495Z,88.83
2023-05-10T23:08:12.047Z,88.91
2023-05-10T23:10:52.423Z,88.91
2023-05-10T23:13:39.017Z,89.64
2023-05-10T23:16:19.545Z,89.43
2023-05-10T23:19:06.137Z,89.57
2023-05-10T23:21:47.186Z,89.76
2023-05-10T23:24:34.050Z,89.58
2023-05-10T23:27:14.742Z,88.50
2023-05-10T23:30:02.997Z,88.54
2023-05-10T23:32:43.671Z,88.75
2023-05-10T23:35:31.021Z,88.64
2023-05-10T23:38:17.998Z,88.84
2023-05-10T23:40:58.102Z,88.34
2023-05-10T23:43:44.985Z,88.39
2023-05-10T23:46:32.058Z,88.25
2023-05-10T23:49:12.390Z,88.81
2023-05-10T23:52:12.400Z,88.70
2023-05-10T23:54:53.831Z,89.35
2023-05-10T23:57:40.944Z,88.27
